sensor_id;sensor_type;location;lat;lon;timestamp;P1;durP1;ratioP1;P2;durP2;ratioP2
62258;SDS011;48241;48.824;10.102;2022-10-24T00:01:40;4.20;;;1.23;;
62258;SDS011;48241;48.824;10.102;2022-10-24T00:04:05;8.52;;;1.00;;
62258;SDS011;48241;48.824;10.102;2022-10-24T00:06:31;5.85;;;0.95;;
62258;SDS011;48241;48.824;10.102;2022-10-24T00:08:57;5.28;;;1.23;;
62258;SDS011;48241;48.824;10.102;2022-10-24T00:11:26;5.30;;;1.30;;
62258;SDS011;48241;48.824;10.102;2022-10-24T00:13:52;5.55;;;1.15;;
62258;SDS011;48241;48.824;10.102;2022-10-24T00:16:20;5.85;;;1.42;;
62258;SDS011;48241;48.824;10.102;2022-10-24T00:18:46;5.57;;;1.20;;
62258;SDS011;48241;48.824;10.102;2022-10-24T00:21:12;7.55;;;1.40;;
62258;SDS011;48241;48.824;10.102;2022-10-24T00:23:38;8.52;;;1.13;;
62258;SDS011;48241;48.824;10.102;2022-10-24T00:26:04;5.15;;;1.15;;
62258;SDS011;48241;48.824;10.102;2022-10-24T00:28:31;5.38;;;1.33;;
62258;SDS011;48241;48.824;10.102;2022-10-24T00:30:58;3.40;;;1.13;;
62258;SDS011;48241;48.824;10.102;2022-10-24T00:33:24;6.18;;;1.42;;
62258;SDS011;48241;48.824;10.102;2022-10-24T00:35:49;4.45;;;1.27;;
62258;SDS011;48241;48.824;10.102;2022-10-24T00:38:15;2.90;;;0.70;;
62258;SDS011;48241;48.824;10.102;2022-10-24T00:40:41;4.15;;;1.13;;
62258;SDS011;48241;48.824;10.102;2022-10-24T00:43:14;4.65;;;1.27;;
62258;SDS011;48241;48.824;10.102;2022-10-24T00:48:30;3.85;;;1.42;;
62258;SDS011;48241;48.824;10.102;2022-10-24T00:53:52;3.75;;;1.40;;
62258;SDS011;48241;48.824;10.102;2022-10-24T00:56:22;3.47;;;1.10;;
62258;SDS011;48241;48.824;10.102;2022-10-24T00:58:52;1.75;;;0.70;;
62258;SDS011;48241;48.824;10.102;2022-10-24T01:01:20;4.35;;;1.63;;
62258;SDS011;48241;48.824;10.102;2022-10-24T01:03:48;6.53;;;1.38;;
62258;SDS011;48241;48.824;10.102;2022-10-24T01:17:20;6.32;;;1.15;;
62258;SDS011;48241;48.824;10.102;2022-10-24T01:22:23;3.42;;;1.10;;
62258;SDS011;48241;48.824;10.102;2022-10-24T01:25:05;4.10;;;1.27;;
62258;SDS011;48241;48.824;10.102;2022-10-24T01:27:52;5.32;;;1.67;;
62258;SDS011;48241;48.824;10.102;2022-10-24T01:30:28;5.40;;;1.40;;
62258;SDS011;48241;48.824;10.102;2022-10-24T01:35:57;6.35;;;1.30;;
62258;SDS011;48241;48.824;10.102;2022-10-24T01:38:40;5.55;;;1.50;;
62258;SDS011;48241;48.824;10.102;2022-10-24T01:41:11;5.07;;;1.40;;
62258;SDS011;48241;48.824;10.102;2022-10-24T01:44:01;7.25;;;1.27;;
62258;SDS011;48241;48.824;10.102;2022-10-24T01:46:31;5.95;;;1.40;;
62258;SDS011;48241;48.824;10.102;2022-10-24T01:49:15;4.57;;;1.30;;
62258;SDS011;48241;48.824;10.102;2022-10-24T01:51:42;4.75;;;1.30;;
62258;SDS011;48241;48.824;10.102;2022-10-24T01:54:09;3.47;;;1.30;;
62258;SDS011;48241;48.824;10.102;2022-10-24T01:56:36;1.75;;;0.63;;
62258;SDS011;48241;48.824;10.102;2022-10-24T01:59:05;5.18;;;1.42;;
62258;SDS011;48241;48.824;10.102;2022-10-24T02:01:33;3.90;;;1.42;;
62258;SDS011;48241;48.824;10.102;2022-10-24T02:04:01;6.90;;;1.45;;
62258;SDS011;48241;48.824;10.102;2022-10-24T02:06:34;6.68;;;1.42;;
62258;SDS011;48241;48.824;10.102;2022-10-24T02:09:07;5.40;;;1.42;;
62258;SDS011;48241;48.824;10.102;2022-10-24T02:11:36;5.88;;;1.50;;
62258;SDS011;48241;48.824;10.102;2022-10-24T02:14:06;6.47;;;1.38;;
62258;SDS011;48241;48.824;10.102;2022-10-24T02:16:37;5.70;;;1.77;;
62258;SDS011;48241;48.824;10.102;2022-10-24T02:19:03;3.55;;;1.38;;
62258;SDS011;48241;48.824;10.102;2022-10-24T02:21:35;4.38;;;1.88;;
62258;SDS011;48241;48.824;10.102;2022-10-24T02:26:55;3.78;;;1.05;;
62258;SDS011;48241;48.824;10.102;2022-10-24T02:29:47;3.33;;;1.30;;
62258;SDS011;48241;48.824;10.102;2022-10-24T02:32:42;6.78;;;1.60;;
62258;SDS011;48241;48.824;10.102;2022-10-24T02:35:11;8.88;;;1.48;;
62258;SDS011;48241;48.824;10.102;2022-10-24T02:37:40;4.68;;;1.70;;
62258;SDS011;48241;48.824;10.102;2022-10-24T02:40:08;7.18;;;1.60;;
62258;SDS011;48241;48.824;10.102;2022-10-24T02:42:37;6.43;;;1.67;;
62258;SDS011;48241;48.824;10.102;2022-10-24T02:45:06;6.90;;;1.80;;
62258;SDS011;48241;48.824;10.102;2022-10-24T02:47:34;5.70;;;1.73;;
62258;SDS011;48241;48.824;10.102;2022-10-24T02:49:59;4.18;;;1.70;;
62258;SDS011;48241;48.824;10.102;2022-10-24T02:52:26;7.25;;;1.88;;
62258;SDS011;48241;48.824;10.102;2022-10-24T02:54:54;4.07;;;1.65;;
62258;SDS011;48241;48.824;10.102;2022-10-24T02:57:19;7.47;;;1.95;;
62258;SDS011;48241;48.824;10.102;2022-10-24T02:59:47;6.35;;;1.80;;
62258;SDS011;48241;48.824;10.102;2022-10-24T03:02:13;6.88;;;1.95;;
62258;SDS011;48241;48.824;10.102;2022-10-24T03:04:38;7.32;;;1.83;;
62258;SDS011;48241;48.824;10.102;2022-10-24T03:07:04;9.63;;;2.08;;
62258;SDS011;48241;48.824;10.102;2022-10-24T03:09:31;8.35;;;2.50;;
62258;SDS011;48241;48.824;10.102;2022-10-24T03:11:57;11.55;;;2.17;;
62258;SDS011;48241;48.824;10.102;2022-10-24T03:14:23;4.45;;;1.55;;
62258;SDS011;48241;48.824;10.102;2022-10-24T03:16:48;8.65;;;2.10;;
62258;SDS011;48241;48.824;10.102;2022-10-24T03:19:14;10.48;;;2.33;;
62258;SDS011;48241;48.824;10.102;2022-10-24T03:21:40;7.60;;;2.20;;
62258;SDS011;48241;48.824;10.102;2022-10-24T03:24:06;6.32;;;2.13;;
62258;SDS011;48241;48.824;10.102;2022-10-24T03:26:32;8.57;;;2.20;;
62258;SDS011;48241;48.824;10.102;2022-10-24T03:28:57;7.28;;;2.10;;
62258;SDS011;48241;48.824;10.102;2022-10-24T03:31:23;6.68;;;2.10;;
62258;SDS011;48241;48.824;10.102;2022-10-24T03:33:49;7.97;;;2.10;;
62258;SDS011;48241;48.824;10.102;2022-10-24T03:36:14;5.82;;;1.67;;
62258;SDS011;48241;48.824;10.102;2022-10-24T03:38:40;6.72;;;2.00;;
62258;SDS011;48241;48.824;10.102;2022-10-24T03:41:05;7.30;;;1.90;;
62258;SDS011;48241;48.824;10.102;2022-10-24T03:43:31;8.13;;;2.15;;
62258;SDS011;48241;48.824;10.102;2022-10-24T03:45:57;5.78;;;2.10;;
62258;SDS011;48241;48.824;10.102;2022-10-24T03:48:23;9.10;;;2.13;;
62258;SDS011;48241;48.824;10.102;2022-10-24T03:50:49;9.23;;;1.80;;
62258;SDS011;48241;48.824;10.102;2022-10-24T03:53:15;5.45;;;1.67;;
62258;SDS011;48241;48.824;10.102;2022-10-24T03:55:40;8.27;;;2.05;;
62258;SDS011;48241;48.824;10.102;2022-10-24T03:58:06;6.57;;;1.88;;
62258;SDS011;48241;48.824;10.102;2022-10-24T04:00:31;7.82;;;2.10;;
62258;SDS011;48241;48.824;10.102;2022-10-24T04:03:03;7.47;;;1.77;;
62258;SDS011;48241;48.824;10.102;2022-10-24T04:05:29;8.07;;;1.55;;
62258;SDS011;48241;48.824;10.102;2022-10-24T04:07:54;12.05;;;2.00;;
62258;SDS011;48241;48.824;10.102;2022-10-24T04:10:20;5.53;;;1.92;;
62258;SDS011;48241;48.824;10.102;2022-10-24T04:12:46;7.70;;;2.17;;
62258;SDS011;48241;48.824;10.102;2022-10-24T04:15:11;10.90;;;1.73;;
62258;SDS011;48241;48.824;10.102;2022-10-24T04:17:37;7.05;;;1.70;;
62258;SDS011;48241;48.824;10.102;2022-10-24T04:20:03;4.15;;;1.20;;
62258;SDS011;48241;48.824;10.102;2022-10-24T04:22:29;6.45;;;1.98;;
62258;SDS011;48241;48.824;10.102;2022-10-24T04:24:55;7.50;;;2.30;;
62258;SDS011;48241;48.824;10.102;2022-10-24T04:27:20;8.13;;;1.85;;
62258;SDS011;48241;48.824;10.102;2022-10-24T04:29:46;7.10;;;2.03;;
62258;SDS011;48241;48.824;10.102;2022-10-24T04:32:12;6.93;;;2.10;;
62258;SDS011;48241;48.824;10.102;2022-10-24T04:34:37;5.68;;;1.70;;
62258;SDS011;48241;48.824;10.102;2022-10-24T04:37:03;5.70;;;1.70;;
62258;SDS011;48241;48.824;10.102;2022-10-24T04:39:29;5.75;;;1.90;;
62258;SDS011;48241;48.824;10.102;2022-10-24T04:41:54;9.93;;;2.28;;
62258;SDS011;48241;48.824;10.102;2022-10-24T04:44:20;5.72;;;1.83;;
62258;SDS011;48241;48.824;10.102;2022-10-24T04:46:46;8.38;;;1.80;;
62258;SDS011;48241;48.824;10.102;2022-10-24T04:49:11;9.30;;;2.08;;
62258;SDS011;48241;48.824;10.102;2022-10-24T04:51:37;10.25;;;2.13;;
62258;SDS011;48241;48.824;10.102;2022-10-24T04:54:03;6.68;;;2.10;;
62258;SDS011;48241;48.824;10.102;2022-10-24T04:56:28;6.13;;;2.10;;
62258;SDS011;48241;48.824;10.102;2022-10-24T04:58:54;6.95;;;1.88;;
62258;SDS011;48241;48.824;10.102;2022-10-24T05:01:20;7.43;;;2.13;;
62258;SDS011;48241;48.824;10.102;2022-10-24T05:03:45;6.05;;;1.90;;
62258;SDS011;48241;48.824;10.102;2022-10-24T05:06:11;8.20;;;2.10;;
62258;SDS011;48241;48.824;10.102;2022-10-24T05:08:36;6.30;;;1.80;;
62258;SDS011;48241;48.824;10.102;2022-10-24T05:11:02;5.63;;;1.75;;
62258;SDS011;48241;48.824;10.102;2022-10-24T05:13:28;7.88;;;2.15;;
62258;SDS011;48241;48.824;10.102;2022-10-24T05:15:53;5.13;;;2.10;;
62258;SDS011;48241;48.824;10.102;2022-10-24T05:18:19;6.65;;;2.20;;
62258;SDS011;48241;48.824;10.102;2022-10-24T05:20:45;9.00;;;2.08;;
62258;SDS011;48241;48.824;10.102;2022-10-24T05:23:11;9.13;;;2.00;;
62258;SDS011;48241;48.824;10.102;2022-10-24T05:25:36;6.40;;;1.67;;
62258;SDS011;48241;48.824;10.102;2022-10-24T05:28:02;7.13;;;2.20;;
62258;SDS011;48241;48.824;10.102;2022-10-24T05:30:28;8.68;;;2.13;;
62258;SDS011;48241;48.824;10.102;2022-10-24T05:32:53;7.15;;;2.10;;
62258;SDS011;48241;48.824;10.102;2022-10-24T05:35:19;3.00;;;1.50;;
62258;SDS011;48241;48.824;10.102;2022-10-24T05:37:45;6.75;;;2.10;;
62258;SDS011;48241;48.824;10.102;2022-10-24T05:40:10;7.70;;;1.95;;
62258;SDS011;48241;48.824;10.102;2022-10-24T05:42:37;6.82;;;1.48;;
62258;SDS011;48241;48.824;10.102;2022-10-24T05:45:05;5.65;;;2.10;;
62258;SDS011;48241;48.824;10.102;2022-10-24T05:47:32;9.50;;;1.83;;
62258;SDS011;48241;48.824;10.102;2022-10-24T05:49:57;5.63;;;2.03;;
62258;SDS011;48241;48.824;10.102;2022-10-24T05:52:23;7.95;;;2.25;;
62258;SDS011;48241;48.824;10.102;2022-10-24T05:54:48;8.32;;;2.17;;
62258;SDS011;48241;48.824;10.102;2022-10-24T05:57:14;7.28;;;2.20;;
62258;SDS011;48241;48.824;10.102;2022-10-24T05:59:40;6.38;;;1.80;;
62258;SDS011;48241;48.824;10.102;2022-10-24T06:02:05;7.38;;;2.13;;
62258;SDS011;48241;48.824;10.102;2022-10-24T06:04:31;6.38;;;2.13;;
62258;SDS011;48241;48.824;10.102;2022-10-24T06:06:56;7.05;;;1.27;;
62258;SDS011;48241;48.824;10.102;2022-10-24T06:09:22;7.35;;;1.83;;
62258;SDS011;48241;48.824;10.102;2022-10-24T06:11:48;8.63;;;1.90;;
62258;SDS011;48241;48.824;10.102;2022-10-24T06:14:13;4.53;;;1.77;;
62258;SDS011;48241;48.824;10.102;2022-10-24T06:16:40;8.55;;;1.90;;
62258;SDS011;48241;48.824;10.102;2022-10-24T06:19:06;6.13;;;1.70;;
62258;SDS011;48241;48.824;10.102;2022-10-24T06:21:32;7.35;;;1.77;;
62258;SDS011;48241;48.824;10.102;2022-10-24T06:23:58;4.97;;;1.73;;
62258;SDS011;48241;48.824;10.102;2022-10-24T06:26:23;7.43;;;2.08;;
62258;SDS011;48241;48.824;10.102;2022-10-24T06:28:49;5.18;;;1.67;;
62258;SDS011;48241;48.824;10.102;2022-10-24T06:31:15;5.00;;;1.67;;
62258;SDS011;48241;48.824;10.102;2022-10-24T06:33:42;7.97;;;1.95;;
62258;SDS011;48241;48.824;10.102;2022-10-24T06:36:08;7.25;;;1.40;;
62258;SDS011;48241;48.824;10.102;2022-10-24T06:38:35;8.52;;;1.83;;
62258;SDS011;48241;48.824;10.102;2022-10-24T06:41:08;6.95;;;1.70;;
62258;SDS011;48241;48.824;10.102;2022-10-24T06:43:39;4.88;;;1.80;;
62258;SDS011;48241;48.824;10.102;2022-10-24T07:02:25;4.45;;;1.60;;
62258;SDS011;48241;48.824;10.102;2022-10-24T07:04:51;6.95;;;1.90;;
62258;SDS011;48241;48.824;10.102;2022-10-24T07:07:17;6.07;;;2.05;;
62258;SDS011;48241;48.824;10.102;2022-10-24T07:10:02;7.05;;;2.10;;
62258;SDS011;48241;48.824;10.102;2022-10-24T07:12:28;11.80;;;2.10;;
62258;SDS011;48241;48.824;10.102;2022-10-24T07:14:53;5.85;;;2.17;;
62258;SDS011;48241;48.824;10.102;2022-10-24T07:35:15;5.75;;;1.85;;
62258;SDS011;48241;48.824;10.102;2022-10-24T07:38:07;3.97;;;1.30;;
62258;SDS011;48241;48.824;10.102;2022-10-24T07:40:41;4.88;;;1.48;;
62258;SDS011;48241;48.824;10.102;2022-10-24T07:43:07;5.75;;;1.98;;
62258;SDS011;48241;48.824;10.102;2022-10-24T07:45:35;7.60;;;2.58;;
62258;SDS011;48241;48.824;10.102;2022-10-24T07:48:13;9.88;;;1.70;;
62258;SDS011;48241;48.824;10.102;2022-10-24T07:50:57;4.70;;;1.95;;
62258;SDS011;48241;48.824;10.102;2022-10-24T07:53:36;7.20;;;2.20;;
62258;SDS011;48241;48.824;10.102;2022-10-24T07:59:42;5.60;;;1.92;;
62258;SDS011;48241;48.824;10.102;2022-10-24T13:56:26;5.00;;;1.40;;
62258;SDS011;48241;48.824;10.102;2022-10-24T14:02:05;2.90;;;1.55;;
62258;SDS011;48241;48.824;10.102;2022-10-24T14:04:43;3.42;;;1.60;;
62258;SDS011;48241;48.824;10.102;2022-10-24T14:07:12;3.40;;;2.00;;
62258;SDS011;48241;48.824;10.102;2022-10-24T14:09:43;3.45;;;1.70;;
62258;SDS011;48241;48.824;10.102;2022-10-24T14:12:19;7.32;;;2.25;;
62258;SDS011;48241;48.824;10.102;2022-10-24T14:14:48;3.13;;;1.80;;
62258;SDS011;48241;48.824;10.102;2022-10-24T14:17:20;3.08;;;1.90;;
62258;SDS011;48241;48.824;10.102;2022-10-24T14:22:37;2.15;;;1.65;;
62258;SDS011;48241;48.824;10.102;2022-10-24T14:27:52;2.40;;;1.70;;
62258;SDS011;48241;48.824;10.102;2022-10-24T14:30:20;2.85;;;1.63;;
62258;SDS011;48241;48.824;10.102;2022-10-24T14:32:47;3.92;;;1.58;;
62258;SDS011;48241;48.824;10.102;2022-10-24T14:35:13;2.83;;;1.83;;
62258;SDS011;48241;48.824;10.102;2022-10-24T14:37:40;1.52;;;1.40;;
62258;SDS011;48241;48.824;10.102;2022-10-24T14:40:15;4.13;;;1.50;;
62258;SDS011;48241;48.824;10.102;2022-10-24T14:42:44;5.07;;;1.60;;
62258;SDS011;48241;48.824;10.102;2022-10-24T14:45:27;4.63;;;1.60;;
62258;SDS011;48241;48.824;10.102;2022-10-24T14:47:56;2.13;;;1.38;;
62258;SDS011;48241;48.824;10.102;2022-10-24T14:50:39;8.00;;;1.85;;
62258;SDS011;48241;48.824;10.102;2022-10-24T14:53:19;3.10;;;1.27;;
62258;SDS011;48241;48.824;10.102;2022-10-24T14:55:50;2.70;;;1.30;;
62258;SDS011;48241;48.824;10.102;2022-10-24T14:58:27;2.50;;;1.20;;
62258;SDS011;48241;48.824;10.102;2022-10-24T15:00:55;5.90;;;1.23;;
62258;SDS011;48241;48.824;10.102;2022-10-24T15:03:25;3.45;;;1.20;;
62258;SDS011;48241;48.824;10.102;2022-10-24T15:05:56;5.93;;;1.20;;
62258;SDS011;48241;48.824;10.102;2022-10-24T15:08:36;5.55;;;1.38;;
62258;SDS011;48241;48.824;10.102;2022-10-24T15:13:50;2.38;;;1.00;;
62258;SDS011;48241;48.824;10.102;2022-10-24T15:16:38;4.18;;;1.30;;
62258;SDS011;48241;48.824;10.102;2022-10-24T15:19:04;3.55;;;1.02;;
62258;SDS011;48241;48.824;10.102;2022-10-24T15:21:36;3.78;;;1.00;;
62258;SDS011;48241;48.824;10.102;2022-10-24T15:24:03;1.58;;;0.90;;
62258;SDS011;48241;48.824;10.102;2022-10-24T15:26:36;2.20;;;1.15;;
62258;SDS011;48241;48.824;10.102;2022-10-24T15:31:35;2.88;;;0.90;;
62258;SDS011;48241;48.824;10.102;2022-10-24T15:34:03;5.13;;;1.25;;
62258;SDS011;48241;48.824;10.102;2022-10-24T15:36:35;2.17;;;1.25;;
62258;SDS011;48241;48.824;10.102;2022-10-24T15:39:05;3.80;;;1.08;;
62258;SDS011;48241;48.824;10.102;2022-10-24T15:44:14;2.97;;;1.10;;
62258;SDS011;48241;48.824;10.102;2022-10-24T15:46:44;4.93;;;1.17;;
62258;SDS011;48241;48.824;10.102;2022-10-24T15:49:10;3.33;;;1.20;;
62258;SDS011;48241;48.824;10.102;2022-10-24T15:51:39;4.30;;;1.38;;
62258;SDS011;48241;48.824;10.102;2022-10-24T15:54:08;1.88;;;1.10;;
62258;SDS011;48241;48.824;10.102;2022-10-24T15:56:35;3.15;;;1.08;;
62258;SDS011;48241;48.824;10.102;2022-10-24T15:59:01;4.05;;;1.35;;
62258;SDS011;48241;48.824;10.102;2022-10-24T16:01:28;3.80;;;0.85;;
62258;SDS011;48241;48.824;10.102;2022-10-24T16:03:56;5.47;;;1.30;;
62258;SDS011;48241;48.824;10.102;2022-10-24T16:06:23;3.03;;;1.20;;
62258;SDS011;48241;48.824;10.102;2022-10-24T16:08:49;2.78;;;1.10;;
62258;SDS011;48241;48.824;10.102;2022-10-24T16:11:14;2.30;;;0.70;;
62258;SDS011;48241;48.824;10.102;2022-10-24T16:13:40;2.63;;;1.10;;
62258;SDS011;48241;48.824;10.102;2022-10-24T16:16:08;2.60;;;1.02;;
62258;SDS011;48241;48.824;10.102;2022-10-24T16:18:34;2.90;;;1.35;;
62258;SDS011;48241;48.824;10.102;2022-10-24T16:21:00;4.50;;;0.90;;
62258;SDS011;48241;48.824;10.102;2022-10-24T16:23:29;5.03;;;1.40;;
62258;SDS011;48241;48.824;10.102;2022-10-24T16:26:03;1.88;;;1.02;;
62258;SDS011;48241;48.824;10.102;2022-10-24T16:28:37;1.08;;;0.98;;
62258;SDS011;48241;48.824;10.102;2022-10-24T16:31:09;4.10;;;1.10;;
62258;SDS011;48241;48.824;10.102;2022-10-24T16:33:38;2.35;;;1.17;;
62258;SDS011;48241;48.824;10.102;2022-10-24T16:36:07;2.28;;;0.98;;
62258;SDS011;48241;48.824;10.102;2022-10-24T16:38:33;3.50;;;1.60;;
62258;SDS011;48241;48.824;10.102;2022-10-24T16:40:59;4.53;;;1.73;;
62258;SDS011;48241;48.824;10.102;2022-10-24T16:43:29;4.15;;;1.52;;
62258;SDS011;48241;48.824;10.102;2022-10-24T16:46:03;3.25;;;1.65;;
62258;SDS011;48241;48.824;10.102;2022-10-24T16:48:34;2.25;;;1.30;;
62258;SDS011;48241;48.824;10.102;2022-10-24T16:50:59;2.95;;;1.48;;
62258;SDS011;48241;48.824;10.102;2022-10-24T16:53:36;3.30;;;1.70;;
62258;SDS011;48241;48.824;10.102;2022-10-24T16:56:08;3.22;;;1.17;;
62258;SDS011;48241;48.824;10.102;2022-10-24T16:58:38;3.30;;;1.30;;
62258;SDS011;48241;48.824;10.102;2022-10-24T17:01:11;2.63;;;1.23;;
62258;SDS011;48241;48.824;10.102;2022-10-24T17:03:51;5.47;;;1.58;;
62258;SDS011;48241;48.824;10.102;2022-10-24T17:06:34;3.45;;;1.60;;
62258;SDS011;48241;48.824;10.102;2022-10-24T17:09:00;5.47;;;1.50;;
62258;SDS011;48241;48.824;10.102;2022-10-24T17:11:51;6.88;;;1.80;;
62258;SDS011;48241;48.824;10.102;2022-10-24T17:14:27;4.35;;;1.75;;
62258;SDS011;48241;48.824;10.102;2022-10-24T17:17:04;2.45;;;1.40;;
62258;SDS011;48241;48.824;10.102;2022-10-24T17:19:43;4.80;;;1.80;;
62258;SDS011;48241;48.824;10.102;2022-10-24T17:22:17;3.47;;;1.55;;
62258;SDS011;48241;48.824;10.102;2022-10-24T17:24:42;3.40;;;1.27;;
62258;SDS011;48241;48.824;10.102;2022-10-24T17:27:10;5.55;;;1.60;;
62258;SDS011;48241;48.824;10.102;2022-10-24T17:29:38;3.97;;;1.75;;
62258;SDS011;48241;48.824;10.102;2022-10-24T17:32:45;6.28;;;1.83;;
62258;SDS011;48241;48.824;10.102;2022-10-24T17:35:12;3.85;;;1.33;;
62258;SDS011;48241;48.824;10.102;2022-10-24T17:37:43;6.90;;;1.80;;
62258;SDS011;48241;48.824;10.102;2022-10-24T17:40:19;5.32;;;1.90;;
62258;SDS011;48241;48.824;10.102;2022-10-24T17:42:46;2.35;;;1.02;;
62258;SDS011;48241;48.824;10.102;2022-10-24T17:45:14;3.83;;;1.65;;
62258;SDS011;48241;48.824;10.102;2022-10-24T17:47:44;4.68;;;1.98;;
62258;SDS011;48241;48.824;10.102;2022-10-24T17:50:11;3.47;;;1.92;;
62258;SDS011;48241;48.824;10.102;2022-10-24T17:52:37;3.70;;;2.00;;
62258;SDS011;48241;48.824;10.102;2022-10-24T17:55:15;5.80;;;2.10;;
62258;SDS011;48241;48.824;10.102;2022-10-24T17:57:46;2.75;;;1.33;;
62258;SDS011;48241;48.824;10.102;2022-10-24T18:00:12;3.35;;;1.58;;
62258;SDS011;48241;48.824;10.102;2022-10-24T18:02:45;5.75;;;1.60;;
62258;SDS011;48241;48.824;10.102;2022-10-24T18:05:12;5.03;;;1.73;;
62258;SDS011;48241;48.824;10.102;2022-10-24T18:07:38;4.55;;;2.28;;
62258;SDS011;48241;48.824;10.102;2022-10-24T18:10:04;3.05;;;1.90;;
62258;SDS011;48241;48.824;10.102;2022-10-24T18:12:33;2.47;;;1.55;;
62258;SDS011;48241;48.824;10.102;2022-10-24T18:15:02;4.70;;;2.20;;
62258;SDS011;48241;48.824;10.102;2022-10-24T18:17:32;3.70;;;2.15;;
62258;SDS011;48241;48.824;10.102;2022-10-24T18:19:58;4.93;;;2.50;;
62258;SDS011;48241;48.824;10.102;2022-10-24T18:22:24;6.60;;;1.92;;
62258;SDS011;48241;48.824;10.102;2022-10-24T18:24:50;4.43;;;2.38;;
62258;SDS011;48241;48.824;10.102;2022-10-24T18:27:15;6.28;;;2.40;;
62258;SDS011;48241;48.824;10.102;2022-10-24T18:29:41;5.40;;;2.42;;
62258;SDS011;48241;48.824;10.102;2022-10-24T18:32:07;3.85;;;2.22;;
62258;SDS011;48241;48.824;10.102;2022-10-24T18:34:37;6.43;;;2.47;;
62258;SDS011;48241;48.824;10.102;2022-10-24T18:37:03;3.53;;;2.20;;
62258;SDS011;48241;48.824;10.102;2022-10-24T18:39:29;7.07;;;2.40;;
62258;SDS011;48241;48.824;10.102;2022-10-24T18:41:55;5.05;;;2.60;;
62258;SDS011;48241;48.824;10.102;2022-10-24T18:44:43;3.78;;;2.08;;
62258;SDS011;48241;48.824;10.102;2022-10-24T18:47:15;3.17;;;2.05;;
62258;SDS011;48241;48.824;10.102;2022-10-24T18:49:42;4.53;;;2.00;;
62258;SDS011;48241;48.824;10.102;2022-10-24T18:54:35;4.13;;;1.88;;
62258;SDS011;48241;48.824;10.102;2022-10-24T18:57:15;5.10;;;2.15;;
62258;SDS011;48241;48.824;10.102;2022-10-24T18:59:46;3.55;;;1.70;;
62258;SDS011;48241;48.824;10.102;2022-10-24T19:02:19;5.93;;;2.20;;
62258;SDS011;48241;48.824;10.102;2022-10-24T19:04:51;5.60;;;2.40;;
62258;SDS011;48241;48.824;10.102;2022-10-24T19:07:27;4.25;;;2.10;;
62258;SDS011;48241;48.824;10.102;2022-10-24T19:09:53;3.97;;;1.85;;
62258;SDS011;48241;48.824;10.102;2022-10-24T19:12:19;5.40;;;1.80;;
62258;SDS011;48241;48.824;10.102;2022-10-24T19:14:44;2.72;;;1.02;;
62258;SDS011;48241;48.824;10.102;2022-10-24T19:17:10;4.57;;;1.20;;
62258;SDS011;48241;48.824;10.102;2022-10-24T19:19:38;1.45;;;1.00;;
62258;SDS011;48241;48.824;10.102;2022-10-24T19:22:05;2.55;;;0.68;;
62258;SDS011;48241;48.824;10.102;2022-10-24T19:24:31;1.38;;;0.32;;
62258;SDS011;48241;48.824;10.102;2022-10-24T19:26:57;0.52;;;0.40;;
62258;SDS011;48241;48.824;10.102;2022-10-24T19:29:23;1.80;;;0.30;;
62258;SDS011;48241;48.824;10.102;2022-10-24T19:31:48;0.50;;;0.40;;
62258;SDS011;48241;48.824;10.102;2022-10-24T19:34:14;1.83;;;0.40;;
62258;SDS011;48241;48.824;10.102;2022-10-24T19:36:39;0.82;;;0.40;;
62258;SDS011;48241;48.824;10.102;2022-10-24T19:39:07;0.82;;;0.50;;
62258;SDS011;48241;48.824;10.102;2022-10-24T19:41:33;0.93;;;0.50;;
62258;SDS011;48241;48.824;10.102;2022-10-24T19:44:00;0.30;;;0.30;;
62258;SDS011;48241;48.824;10.102;2022-10-24T19:46:26;2.47;;;0.68;;
62258;SDS011;48241;48.824;10.102;2022-10-24T19:48:55;0.65;;;0.40;;
62258;SDS011;48241;48.824;10.102;2022-10-24T19:51:21;0.50;;;0.35;;
62258;SDS011;48241;48.824;10.102;2022-10-24T19:53:51;0.80;;;0.43;;
62258;SDS011;48241;48.824;10.102;2022-10-24T19:56:18;1.70;;;0.40;;
62258;SDS011;48241;48.824;10.102;2022-10-24T19:58:48;2.10;;;0.70;;
62258;SDS011;48241;48.824;10.102;2022-10-24T20:01:15;2.20;;;0.63;;
62258;SDS011;48241;48.824;10.102;2022-10-24T20:03:43;0.50;;;0.30;;
62258;SDS011;48241;48.824;10.102;2022-10-24T20:06:10;2.25;;;0.30;;
62258;SDS011;48241;48.824;10.102;2022-10-24T20:08:37;1.45;;;0.40;;
62258;SDS011;48241;48.824;10.102;2022-10-24T20:11:23;1.10;;;0.40;;
62258;SDS011;48241;48.824;10.102;2022-10-24T20:13:51;0.52;;;0.32;;
62258;SDS011;48241;48.824;10.102;2022-10-24T20:16:20;0.80;;;0.32;;
62258;SDS011;48241;48.824;10.102;2022-10-24T20:18:48;0.95;;;0.45;;
62258;SDS011;48241;48.824;10.102;2022-10-24T20:21:17;2.38;;;0.40;;
62258;SDS011;48241;48.824;10.102;2022-10-24T20:23:46;1.27;;;0.60;;
62258;SDS011;48241;48.824;10.102;2022-10-24T20:26:16;1.50;;;0.50;;
62258;SDS011;48241;48.824;10.102;2022-10-24T20:28:45;1.95;;;0.50;;
62258;SDS011;48241;48.824;10.102;2022-10-24T20:31:22;0.90;;;0.30;;
62258;SDS011;48241;48.824;10.102;2022-10-24T20:33:50;0.75;;;0.50;;
62258;SDS011;48241;48.824;10.102;2022-10-24T20:36:19;3.03;;;0.60;;
62258;SDS011;48241;48.824;10.102;2022-10-24T20:38:45;1.65;;;0.40;;
62258;SDS011;48241;48.824;10.102;2022-10-24T20:41:14;1.10;;;0.50;;
62258;SDS011;48241;48.824;10.102;2022-10-24T20:43:42;1.00;;;0.45;;
62258;SDS011;48241;48.824;10.102;2022-10-24T20:46:11;0.82;;;0.40;;
62258;SDS011;48241;48.824;10.102;2022-10-24T20:48:42;1.55;;;0.50;;
62258;SDS011;48241;48.824;10.102;2022-10-24T20:51:09;0.90;;;0.57;;
62258;SDS011;48241;48.824;10.102;2022-10-24T20:53:39;2.20;;;0.40;;
62258;SDS011;48241;48.824;10.102;2022-10-24T20:56:06;2.72;;;0.43;;
62258;SDS011;48241;48.824;10.102;2022-10-24T20:58:36;1.13;;;0.45;;
62258;SDS011;48241;48.824;10.102;2022-10-24T21:01:11;2.00;;;0.50;;
62258;SDS011;48241;48.824;10.102;2022-10-24T21:03:47;0.43;;;0.30;;
62258;SDS011;48241;48.824;10.102;2022-10-24T21:06:17;2.13;;;0.50;;
62258;SDS011;48241;48.824;10.102;2022-10-24T21:08:48;3.22;;;0.47;;
62258;SDS011;48241;48.824;10.102;2022-10-24T21:11:16;3.97;;;0.50;;
62258;SDS011;48241;48.824;10.102;2022-10-24T21:13:44;2.65;;;0.50;;
62258;SDS011;48241;48.824;10.102;2022-10-24T21:16:10;1.60;;;0.52;;
62258;SDS011;48241;48.824;10.102;2022-10-24T21:18:36;2.00;;;0.40;;
62258;SDS011;48241;48.824;10.102;2022-10-24T21:21:08;0.98;;;0.40;;
62258;SDS011;48241;48.824;10.102;2022-10-24T21:23:36;1.83;;;0.40;;
62258;SDS011;48241;48.824;10.102;2022-10-24T21:26:03;1.85;;;0.30;;
62258;SDS011;48241;48.824;10.102;2022-10-24T21:28:34;2.55;;;0.70;;
62258;SDS011;48241;48.824;10.102;2022-10-24T21:31:04;0.95;;;0.50;;
62258;SDS011;48241;48.824;10.102;2022-10-24T21:33:35;1.67;;;0.57;;
62258;SDS011;48241;48.824;10.102;2022-10-24T21:36:05;1.13;;;0.60;;
62258;SDS011;48241;48.824;10.102;2022-10-24T21:38:33;1.85;;;0.65;;
62258;SDS011;48241;48.824;10.102;2022-10-24T21:40:59;0.93;;;0.47;;
62258;SDS011;48241;48.824;10.102;2022-10-24T21:43:26;2.78;;;0.52;;
62258;SDS011;48241;48.824;10.102;2022-10-24T21:46:01;2.30;;;0.40;;
62258;SDS011;48241;48.824;10.102;2022-10-24T21:48:46;0.95;;;0.50;;
62258;SDS011;48241;48.824;10.102;2022-10-24T21:51:16;3.03;;;0.50;;
62258;SDS011;48241;48.824;10.102;2022-10-24T21:53:44;0.73;;;0.30;;
62258;SDS011;48241;48.824;10.102;2022-10-24T21:56:15;1.90;;;0.30;;
62258;SDS011;48241;48.824;10.102;2022-10-24T21:58:49;0.80;;;0.38;;
62258;SDS011;48241;48.824;10.102;2022-10-24T22:01:17;1.85;;;0.47;;